Pacific Princess — ZCDS3 — position and weather

sailwx.info

Track history (hours):
 
Tides and Currents Weather Stations Pressure Air Temp Water Temp Dewpoint Dewpoint Depression Visibility Wind Speed Wind Dir Waves Ship Positions

Pacific Princess (Bermuda)

Last reported at 2017-Sep-26 14:29 UTC. Time now 2017-Sep-26 14:53 UTC.
Position N 49°29' E 000°07'.

Length 180.5 m; beam 25.6 m; draft 6 m.

Type: Passenger vessel. MMSI: 310504000.

Date/timePositionNaut miles runAvg speedWind from/ knotsBaromVisibWave heightAir tempDewpointWater temp
2017-Sep-26 14:29N 49°29' E 000°07'0 0.0
2017-Sep-26 13:59N 49°29' E 000°07'0 0.0
2017-Sep-26 13:29N 49°29' E 000°07'0 0.0
2017-Sep-26 12:56N 49°29' E 000°07'0 0.0
2017-Sep-26 12:29N 49°29' E 000°07'0 0.0
2017-Sep-26 11:59N 49°29' E 000°07'0 0.0
2017-Sep-26 11:29N 49°29' E 000°07'0 0.0
2017-Sep-26 10:59N 49°29' E 000°07'0 0.0
2017-Sep-26 10:29N 49°29' E 000°07'0 0.0
2017-Sep-26 09:59N 49°29' E 000°07'0 0.0
2017-Sep-26 09:29N 49°29' E 000°07'0 0.0
2017-Sep-26 08:59N 49°29' E 000°07'0 0.0
2017-Sep-26 08:29N 49°29' E 000°07'0 0.0
2017-Sep-26 07:59N 49°29' E 000°07'0 0.0
2017-Sep-26 07:29N 49°29' E 000°07'0 0.0
2017-Sep-26 06:59N 49°29' E 000°07'0 0.0
2017-Sep-26 06:29N 49°29' E 000°07'0 0.0
2017-Sep-26 05:56N 49°29' E 000°07'0 0.0
2017-Sep-26 05:29N 49°29' E 000°07'0 0.0
2017-Sep-26 04:59N 49°29' E 000°07'0 0.1
2017-Sep-26 04:30N 49°29' E 000°07'2 3.1
2017-Sep-26 04:01N 49°29' E 000°05'714.2
2017-Sep-26 03:30N 49°31' W 000°06'510.5
2017-Sep-26 03:01N 49°34' W 000°13'713.2
2017-Sep-26 02:29N 49°41' W 000°13'611.8
2017-Sep-26 02:00N 49°47' W 000°13'912.5
2017-Sep-26 01:16N 49°56' W 000°12'2811.6
2017-Sep-25 22:52N 50°23' W 000°08'412.1
2017-Sep-25 22:30N 50°27' W 000°03'611.7
2017-Sep-25 22:00N 50°29' E 000°06'611.3
2017-Sep-25 21:30N 50°30' E 000°14'510.6
2017-Sep-25 21:00N 50°32' E 000°22'611.3
2017-Sep-25 20:30N 50°34' E 000°31'611.5
2017-Sep-25 20:00N 50°37' E 000°38'611.6
2017-Sep-25 19:30N 50°40' E 000°45'611.7
2017-Sep-25 19:00N 50°44' E 000°52'611.4
2017-Sep-25 18:30N 50°48' E 000°59'611.2
2017-Sep-25 18:00N 50°52' E 001°06'611.4
2017-Sep-25 17:30N 50°56' E 001°12'610.8
2017-Sep-25 16:58N 51°00' E 001°18'6 9.8
2017-Sep-25 16:21N 51°06' E 001°21'1 2.4
2017-Sep-25 15:53N 51°07' E 001°19'0 0.0
2017-Sep-25 15:28N 51°07' E 001°19'0 0.0
2017-Sep-25 14:50N 51°07' E 001°19'0 0.0
2017-Sep-25 14:26N 51°07' E 001°19'0 0.0
2017-Sep-25 13:59N 51°07' E 001°19'0 0.0
2017-Sep-25 13:29N 51°07' E 001°19'0 0.0
2017-Sep-25 12:38N 51°07' E 001°19'0 0.0
2017-Sep-25 12:29N 51°07' E 001°19'0 0.0
2017-Sep-25 11:46N 51°07' E 001°19'0 0.0
2017-Sep-25 11:29N 51°07' E 001°19'0 0.0
2017-Sep-25 10:59N 51°07' E 001°19'0 0.0
2017-Sep-25 10:22N 51°07' E 001°19'0 0.0
2017-Sep-25 09:59N 51°07' E 001°19'0 0.0
2017-Sep-25 09:28N 51°07' E 001°19'0 0.0
2017-Sep-25 08:40N 51°07' E 001°19'0 0.0
2017-Sep-25 08:10N 51°07' E 001°19'0 0.0
2017-Sep-25 07:59N 51°07' E 001°19'0 0.0
2017-Sep-25 06:58N 51°07' E 001°19'0 0.0
2017-Sep-25 06:17N 51°07' E 001°19'0 0.0
2017-Sep-25 05:59N 51°07' E 001°19'0 0.0
2017-Sep-25 05:23N 51°07' E 001°19'0 0.0
2017-Sep-25 04:53N 51°07' E 001°19'0 1.0
2017-Sep-25 04:30N 51°07' E 001°20'5 9.9
2017-Sep-25 04:00N 51°08' E 001°27'510.1
2017-Sep-25 03:30N 51°10' E 001°35'612.6
2017-Sep-25 03:00N 51°13' E 001°43'612.5
2017-Sep-25 02:30N 51°19' E 001°48'612.5
2017-Sep-25 02:00N 51°24' E 001°52'713.1
2017-Sep-25 01:30N 51°29' E 001°59'713.8
2017-Sep-25 01:00N 51°34' E 002°06'815.9
2017-Sep-25 00:30N 51°40' E 002°15'816.8
2017-Sep-25 00:00N 51°46' E 002°24'4916.3
2017-Sep-24 21:01N 52°20' E 003°22'014.0
2017-Sep-24 21:00N 52°20' E 003°22'815.0
2017-Sep-24 20:29N 52°26' E 003°30'1914.3
2017-Sep-24 19:08N 52°31' E 004°01'314.6
2017-Sep-24 18:58N 52°31' E 004°05'714.5
2017-Sep-24 18:30N 52°31' E 004°16'714.5
2017-Sep-24 18:00N 52°29' E 004°27'510.3
2017-Sep-24 17:31N 52°28' E 004°35'1 1.4
2017-Sep-24 17:00N 52°28' E 004°37'2 4.6
2017-Sep-24 16:30N 52°28' E 004°40'4 8.2
2017-Sep-24 16:01N 52°26' E 004°46'4 8.1
2017-Sep-24 15:31N 52°24' E 004°53'2 4.1
2017-Sep-24 14:57N 52°23' E 004°55'0 0.0
2017-Sep-24 14:27N 52°23' E 004°55'0 0.0
2017-Sep-24 13:57N 52°23' E 004°55'0 0.0
2017-Sep-24 13:27N 52°23' E 004°55'0 0.0
2017-Sep-24 12:57N 52°23' E 004°55'0 0.0
2017-Sep-24 12:27N 52°23' E 004°55'0 0.0
2017-Sep-24 11:57N 52°23' E 004°55'0 0.0
2017-Sep-24 11:27N 52°23' E 004°55'0 0.0
2017-Sep-24 10:57N 52°23' E 004°55'0 0.0
2017-Sep-24 10:27N 52°23' E 004°55'0 0.0
2017-Sep-24 09:57N 52°23' E 004°55'0 0.0
2017-Sep-24 09:27N 52°23' E 004°55'0 0.0
2017-Sep-24 08:57N 52°23' E 004°55'0 0.0
2017-Sep-24 08:27N 52°23' E 004°55'0 0.4
2017-Sep-24 08:01N 52°23' E 004°55'2 3.8
2017-Sep-24 07:31N 52°24' E 004°53'4 7.9
2017-Sep-24 07:00N 52°26' E 004°47'4 7.9
2017-Sep-24 06:30N 52°27' E 004°41'3 5.4
2017-Sep-24 06:01N 52°28' E 004°37'0 0.5
2017-Sep-24 05:31N 52°28' E 004°36'2 4.8
2017-Sep-24 05:00N 52°28' E 004°32'3 6.3
2017-Sep-24 04:30N 52°29' E 004°27'510.2
2017-Sep-24 04:00N 52°29' E 004°19'612.1
2017-Sep-24 03:30N 52°30' E 004°09'612.2
2017-Sep-24 03:00N 52°35' E 004°05'713.5
2017-Sep-24 02:30N 52°42' E 004°01'713.6
2017-Sep-24 01:59N 52°49' E 003°58'712.8
2017-Sep-24 01:27N 52°55' E 003°60'612.4
2017-Sep-24 01:00N 52°60' E 004°05'1013.0
2017-Sep-24 00:14N 53°06' E 004°18'314.5
2017-Sep-24 00:00N 53°08' E 004°22'915.0
2017-Sep-23 23:26N 53°16' E 004°27'814.6
2017-Sep-23 22:53N 53°24' E 004°32'814.1
2017-Sep-23 22:20N 53°30' E 004°40'617.2
2017-Sep-23 22:00N 53°32' E 004°49'816.9
2017-Sep-23 21:30N 53°35' E 005°02'816.1
2017-Sep-23 21:00N 53°38' E 005°15'816.1
2017-Sep-23 20:30N 53°40' E 005°28'34610.3
2017-Sep-22 11:00N 55°30' E 014°54'13413.4 340 / 181019.3 5.4 14.012.213.0
2017-Sep-22 01:00N 57°12' E 017°30'13315.4 030 / 161020.410.8 14.512.714.0
2017-Sep-21 16:24N 59°16' E 018°59'411.0
2017-Sep-21 15:59N 59°18' E 018°51'1012.2
2017-Sep-21 15:11N 59°23' E 018°34'312.6
2017-Sep-21 14:59N 59°25' E 018°31'3 6.1
2017-Sep-21 14:30N 59°25' E 018°25'4 5.2
2017-Sep-21 13:49N 59°22' E 018°21'412.0
2017-Sep-21 13:30N 59°21' E 018°14'3 6.0
2017-Sep-21 13:00N 59°21' E 018°08'0 0.0
2017-Sep-21 12:28N 59°21' E 018°08'0 0.0
2017-Sep-21 11:58N 59°21' E 018°08'0 0.0
2017-Sep-21 11:25N 59°21' E 018°08'0 0.0
2017-Sep-21 10:58N 59°21' E 018°08'0 0.0
2017-Sep-21 10:28N 59°21' E 018°08'0 0.0
2017-Sep-21 09:55N 59°21' E 018°08'0 0.0
2017-Sep-21 09:28N 59°21' E 018°08'0 0.0
2017-Sep-21 08:55N 59°21' E 018°08'0 0.0
2017-Sep-21 08:28N 59°21' E 018°08'0 0.0
2017-Sep-21 07:49N 59°21' E 018°08'0 0.0
2017-Sep-21 07:28N 59°21' E 018°08'0 0.0
2017-Sep-21 06:49N 59°21' E 018°08'0 0.0
2017-Sep-21 06:28N 59°21' E 018°08'0 0.0
2017-Sep-21 05:58N 59°21' E 018°08'0 0.0
2017-Sep-21 05:28N 59°21' E 018°08'0 0.0
2017-Sep-21 04:55N 59°21' E 018°08'0 0.0
2017-Sep-21 04:25N 59°21' E 018°08'0 0.0
2017-Sep-21 03:58N 59°21' E 018°08'0 0.0
2017-Sep-21 03:28N 59°21' E 018°08'0 0.0
2017-Sep-21 02:55N 59°21' E 018°08'0 0.0
2017-Sep-21 02:25N 59°21' E 018°08'0 0.0
2017-Sep-21 01:55N 59°21' E 018°08'0 0.0
2017-Sep-21 01:28N 59°21' E 018°08'0 0.0
2017-Sep-21 00:58N 59°21' E 018°08'0 0.0
2017-Sep-21 00:25N 59°21' E 018°08'0 0.0
2017-Sep-20 23:58N 59°21' E 018°08'0 0.0
2017-Sep-20 23:28N 59°21' E 018°08'0 0.0
2017-Sep-20 22:58N 59°21' E 018°08'0 0.0
2017-Sep-20 22:28N 59°21' E 018°08'0 0.0
2017-Sep-20 21:58N 59°21' E 018°08'0 0.0
2017-Sep-20 21:25N 59°21' E 018°08'0 0.0
2017-Sep-20 20:58N 59°21' E 018°08'0 0.0
2017-Sep-20 20:28N 59°21' E 018°08'0 0.0
2017-Sep-20 19:58N 59°21' E 018°08'0 0.0
2017-Sep-20 19:28N 59°21' E 018°08'0 0.0
2017-Sep-20 18:58N 59°21' E 018°08'0 0.0
2017-Sep-20 18:25N 59°21' E 018°08'0 0.0
2017-Sep-20 17:55N 59°21' E 018°08'0 0.0
2017-Sep-20 17:19N 59°21' E 018°08'0 0.0
2017-Sep-20 16:49N 59°21' E 018°08'0 0.0
2017-Sep-20 16:28N 59°21' E 018°08'0 0.0
2017-Sep-20 15:55N 59°21' E 018°08'0 0.0
2017-Sep-20 15:19N 59°21' E 018°08'0 0.0
2017-Sep-20 14:55N 59°21' E 018°08'0 0.0
2017-Sep-20 13:58N 59°21' E 018°08'0 0.0
2017-Sep-20 13:25N 59°21' E 018°08'0 0.0
2017-Sep-20 12:55N 59°21' E 018°08'0 0.0
2017-Sep-20 12:28N 59°21' E 018°08'0 0.0
2017-Sep-20 11:58N 59°21' E 018°08'0 0.0
2017-Sep-20 11:25N 59°21' E 018°08'0 0.0
2017-Sep-20 10:55N 59°21' E 018°08'0 0.0
2017-Sep-20 10:28N 59°21' E 018°08'0 0.0
2017-Sep-20 09:58N 59°21' E 018°08'0 0.0
2017-Sep-20 09:28N 59°21' E 018°08'0 0.0
2017-Sep-20 08:58N 59°21' E 018°08'0 0.0
2017-Sep-20 08:28N 59°21' E 018°08'0 0.0
2017-Sep-20 07:55N 59°21' E 018°08'0 0.2
2017-Sep-20 07:30N 59°21' E 018°08'2 4.8
2017-Sep-20 07:01N 59°20' E 018°13'610.8
2017-Sep-20 06:29N 59°22' E 018°23'2 4.9
2017-Sep-20 06:00N 59°24' E 018°26'3 5.1
2017-Sep-20 05:30N 59°26' E 018°30'611.2
2017-Sep-20 04:56N 59°23' E 018°40'613.7
2017-Sep-20 04:30N 59°19' E 018°49'510.6
2017-Sep-20 04:00N 59°16' E 018°58'711.8
2017-Sep-20 03:23N 59°13' E 019°11'812.9
2017-Sep-20 02:47N 59°13' E 019°25'4215.2
2017-Sep-20 00:00N 59°18' E 020°48'1511.3 340 / 181013.210.8 10.0 7.914.0
2017-Sep-19 22:38N 59°22' E 021°17'215.7
2017-Sep-19 22:30N 59°23' E 021°21'815.5
2017-Sep-19 22:01N 59°24' E 021°36'815.1
2017-Sep-19 21:30N 59°25' E 021°50'4215.1
2017-Sep-19 18:42N 59°36' E 023°11'515.6
2017-Sep-19 18:23N 59°37' E 023°20'615.3
2017-Sep-19 18:00N 59°38' E 023°31'815.3
2017-Sep-19 17:30N 59°41' E 023°46'815.4
2017-Sep-19 17:00N 59°44' E 024°00'815.6
2017-Sep-19 16:30N 59°46' E 024°15'815.5
2017-Sep-19 16:00N 59°47' E 024°30'52 3.3
2017-Sep-19 00:19N 59°59' E 026°12'515.1
2017-Sep-19 00:01N 59°60' E 026°21'533167.3
2017-Sep-19 00:00N 59°54' E 028°06'4694.6 360 / 32999.210.8 12.0 7.914.0
2017-Sep-18 23:30N 60°01' E 026°36'714.8
2017-Sep-18 23:01N 59°60' E 026°50'714.1
2017-Sep-18 22:30N 59°59' E 027°04'714.5
2017-Sep-18 22:00N 60°03' E 027°17'714.6
2017-Sep-18 21:31N 60°07' E 027°29'714.7
2017-Sep-18 21:00N 60°11' E 027°42'713.8
2017-Sep-18 20:30N 60°11' E 027°56'714.5
2017-Sep-18 20:01N 60°09' E 028°10'714.8
2017-Sep-18 19:30N 60°05' E 028°23'714.5
2017-Sep-18 19:00N 60°03' E 028°37'714.8
2017-Sep-18 18:30N 60°03' E 028°52'2713.6
2017-Sep-18 16:29N 59°59' E 029°46'511.0
2017-Sep-18 16:00N 59°56' E 029°55'510.5
2017-Sep-18 15:30N 59°56' E 030°05'3 5.7
2017-Sep-18 15:00N 59°57' E 030°11'0 0.1
2017-Sep-18 14:27N 59°57' E 030°11'0 0.0
2017-Sep-18 14:00N 59°57' E 030°11'0 0.0
2017-Sep-18 13:30N 59°57' E 030°11'0 0.0
2017-Sep-18 13:00N 59°57' E 030°11'0 0.0
2017-Sep-18 12:30N 59°57' E 030°11'0 0.0
2017-Sep-18 12:00N 59°57' E 030°11'0 0.0
2017-Sep-18 11:30N 59°57' E 030°11'0 0.0
2017-Sep-18 11:00N 59°57' E 030°11'0 0.0
2017-Sep-18 10:29N 59°57' E 030°11'0 0.0
2017-Sep-18 09:59N 59°57' E 030°11'0 0.0
2017-Sep-18 09:29N 59°57' E 030°11'0 0.0
2017-Sep-18 08:59N 59°57' E 030°11'0 0.0
2017-Sep-18 08:29N 59°57' E 030°11'0 0.0
2017-Sep-18 07:59N 59°57' E 030°11'0 0.0
2017-Sep-18 07:29N 59°57' E 030°11'0 0.0
2017-Sep-18 06:59N 59°57' E 030°11'0 0.0
2017-Sep-18 06:29N 59°57' E 030°11'0 0.0
2017-Sep-18 05:59N 59°57' E 030°11'0 0.0
2017-Sep-18 05:29N 59°57' E 030°11'0 0.0
2017-Sep-18 04:59N 59°57' E 030°11'0 0.0
2017-Sep-18 04:29N 59°57' E 030°11'0 0.0
2017-Sep-18 03:59N 59°57' E 030°11'0 0.0
2017-Sep-18 03:29N 59°57' E 030°11'0 0.0
2017-Sep-18 02:59N 59°57' E 030°11'0 0.0
2017-Sep-18 02:29N 59°57' E 030°11'0 0.0
2017-Sep-18 01:59N 59°57' E 030°11'0 0.0
2017-Sep-18 01:29N 59°57' E 030°11'0 0.0
2017-Sep-18 00:56N 59°57' E 030°11'0 0.0
2017-Sep-18 00:29N 59°57' E 030°11'0 0.0
2017-Sep-17 23:59N 59°57' E 030°11'0 0.0
2017-Sep-17 23:26N 59°57' E 030°11'0 0.0
2017-Sep-17 22:59N 59°57' E 030°11'0 0.0
2017-Sep-17 22:29N 59°57' E 030°11'0 0.0
2017-Sep-17 21:59N 59°57' E 030°11'0 0.0
2017-Sep-17 21:29N 59°57' E 030°11'0 0.0
2017-Sep-17 20:59N 59°57' E 030°11'0 0.0
2017-Sep-17 20:29N 59°57' E 030°11'0 0.0
2017-Sep-17 19:59N 59°57' E 030°11'0 0.0
2017-Sep-17 19:29N 59°57' E 030°11'0 0.0
2017-Sep-17 18:59N 59°57' E 030°11'0 0.0
2017-Sep-17 18:29N 59°57' E 030°11'0 0.0
2017-Sep-17 17:59N 59°57' E 030°11'0 0.0
2017-Sep-17 17:26N 59°57' E 030°11'0 0.0
2017-Sep-17 16:59N 59°57' E 030°11'0 0.0
2017-Sep-17 16:29N 59°57' E 030°11'0 0.0
2017-Sep-17 15:56N 59°57' E 030°11'0 0.0
2017-Sep-17 15:29N 59°57' E 030°11'0 0.0
2017-Sep-17 14:59N 59°57' E 030°11'0 0.0
2017-Sep-17 14:29N 59°57' E 030°11'0 0.0
2017-Sep-17 13:59N 59°57' E 030°11'0 0.0
2017-Sep-17 13:29N 59°57' E 030°11'0 0.0
2017-Sep-17 12:59N 59°57' E 030°11'0 0.0
2017-Sep-17 12:29N 59°57' E 030°11'0 0.0
2017-Sep-17 11:59N 59°57' E 030°11'0 0.0
2017-Sep-17 11:29N 59°57' E 030°11'0 0.0
2017-Sep-17 10:56N 59°57' E 030°11'0 0.0
2017-Sep-17 10:26N 59°57' E 030°11'0 0.0
2017-Sep-17 09:59N 59°57' E 030°11'0 0.0
2017-Sep-17 09:26N 59°57' E 030°11'0 0.0
2017-Sep-17 08:59N 59°57' E 030°11'0 0.0
2017-Sep-17 08:29N 59°57' E 030°11'0 0.0
2017-Sep-17 07:59N 59°57' E 030°11'0 0.0
2017-Sep-17 07:29N 59°57' E 030°11'0 0.0
2017-Sep-17 06:59N 59°57' E 030°11'0 0.0
2017-Sep-17 06:29N 59°57' E 030°11'0 0.0
2017-Sep-17 05:56N 59°57' E 030°11'0 0.0
2017-Sep-17 05:29N 59°57' E 030°11'0 0.0
2017-Sep-17 04:59N 59°57' E 030°11'0 0.0
2017-Sep-17 04:29N 59°57' E 030°11'0 0.0
2017-Sep-17 03:59N 59°57' E 030°11'0 0.0
2017-Sep-17 03:30N 59°57' E 030°11'1 1.5
2017-Sep-17 03:00N 59°57' E 030°10'4 8.3
2017-Sep-17 02:30N 59°56' E 030°02'5 9.9
2017-Sep-17 02:00N 59°57' E 029°52'710.7
2017-Sep-17 01:23N 59°60' E 029°40'2712.1
2017-Sep-16 23:09N 60°02' E 028°47'214.0
2017-Sep-16 23:00N 60°02' E 028°42'714.0
2017-Sep-16 22:31N 60°02' E 028°29'612.9
2017-Sep-16 22:00N 60°06' E 028°18'612.8
2017-Sep-16 21:30N 60°09' E 028°06'713.1
2017-Sep-16 21:00N 60°10' E 027°53'612.3
2017-Sep-16 20:30N 60°09' E 027°41'713.7
2017-Sep-16 20:01N 60°05' E 027°29'713.9
2017-Sep-16 19:30N 60°02' E 027°17'612.8
2017-Sep-16 19:01N 59°58' E 027°06'714.0
2017-Sep-16 18:31N 59°58' E 026°52'815.3
2017-Sep-16 18:00N 59°59' E 026°37'917.2
2017-Sep-16 17:30N 59°57' E 026°21'4217.1
2017-Sep-16 15:04N 59°46' E 025°00'116.9
2017-Sep-16 15:00N 59°46' E 024°58'816.8
2017-Sep-16 14:31N 59°40' E 024°46'  
Track history (hours):
 
Tides and Currents Weather Stations Pressure Air Temp Water Temp Dewpoint Dewpoint Depression Visibility Wind Speed Wind Dir Waves Ship Positions

Pacific Princess (Bermuda)

Last reported at 2017-Sep-26 14:29 UTC. Time now 2017-Sep-26 14:53 UTC.
Position N 49°29' E 000°07'.

Length 180.5 m; beam 25.6 m; draft 6 m.

Type: Passenger vessel. MMSI: 310504000.

Date/timePositionNaut miles runAvg speedWind from/ knotsBaromVisibWave heightAir tempDewpointWater temp
2017-Sep-26 14:29N 49°29' E 000°07'0 0.0
2017-Sep-26 13:59N 49°29' E 000°07'0 0.0
2017-Sep-26 13:29N 49°29' E 000°07'0 0.0
2017-Sep-26 12:56N 49°29' E 000°07'0 0.0
2017-Sep-26 12:29N 49°29' E 000°07'0 0.0
2017-Sep-26 11:59N 49°29' E 000°07'0 0.0
2017-Sep-26 11:29N 49°29' E 000°07'0 0.0
2017-Sep-26 10:59N 49°29' E 000°07'0 0.0
2017-Sep-26 10:29N 49°29' E 000°07'0 0.0
2017-Sep-26 09:59N 49°29' E 000°07'0 0.0
2017-Sep-26 09:29N 49°29' E 000°07'0 0.0
2017-Sep-26 08:59N 49°29' E 000°07'0 0.0
2017-Sep-26 08:29N 49°29' E 000°07'0 0.0
2017-Sep-26 07:59N 49°29' E 000°07'0 0.0
2017-Sep-26 07:29N 49°29' E 000°07'0 0.0
2017-Sep-26 06:59N 49°29' E 000°07'0 0.0
2017-Sep-26 06:29N 49°29' E 000°07'0 0.0
2017-Sep-26 05:56N 49°29' E 000°07'0 0.0
2017-Sep-26 05:29N 49°29' E 000°07'0 0.0
2017-Sep-26 04:59N 49°29' E 000°07'0 0.1
2017-Sep-26 04:30N 49°29' E 000°07'2 3.1
2017-Sep-26 04:01N 49°29' E 000°05'714.2
2017-Sep-26 03:30N 49°31' W 000°06'510.5
2017-Sep-26 03:01N 49°34' W 000°13'713.2
2017-Sep-26 02:29N 49°41' W 000°13'611.8
2017-Sep-26 02:00N 49°47' W 000°13'912.5
2017-Sep-26 01:16N 49°56' W 000°12'2811.6
2017-Sep-25 22:52N 50°23' W 000°08'412.1
2017-Sep-25 22:30N 50°27' W 000°03'611.7
2017-Sep-25 22:00N 50°29' E 000°06'611.3
2017-Sep-25 21:30N 50°30' E 000°14'510.6
2017-Sep-25 21:00N 50°32' E 000°22'611.3
2017-Sep-25 20:30N 50°34' E 000°31'611.5
2017-Sep-25 20:00N 50°37' E 000°38'611.6
2017-Sep-25 19:30N 50°40' E 000°45'611.7
2017-Sep-25 19:00N 50°44' E 000°52'611.4
2017-Sep-25 18:30N 50°48' E 000°59'611.2
2017-Sep-25 18:00N 50°52' E 001°06'611.4
2017-Sep-25 17:30N 50°56' E 001°12'610.8
2017-Sep-25 16:58N 51°00' E 001°18'6 9.8
2017-Sep-25 16:21N 51°06' E 001°21'1 2.4
2017-Sep-25 15:53N 51°07' E 001°19'0 0.0
2017-Sep-25 15:28N 51°07' E 001°19'0 0.0
2017-Sep-25 14:50N 51°07' E 001°19'0 0.0
2017-Sep-25 14:26N 51°07' E 001°19'0 0.0
2017-Sep-25 13:59N 51°07' E 001°19'0 0.0
2017-Sep-25 13:29N 51°07' E 001°19'0 0.0
2017-Sep-25 12:38N 51°07' E 001°19'0 0.0
2017-Sep-25 12:29N 51°07' E 001°19'0 0.0
2017-Sep-25 11:46N 51°07' E 001°19'0 0.0
2017-Sep-25 11:29N 51°07' E 001°19'0 0.0
2017-Sep-25 10:59N 51°07' E 001°19'0 0.0
2017-Sep-25 10:22N 51°07' E 001°19'0 0.0
2017-Sep-25 09:59N 51°07' E 001°19'0 0.0
2017-Sep-25 09:28N 51°07' E 001°19'0 0.0
2017-Sep-25 08:40N 51°07' E 001°19'0 0.0
2017-Sep-25 08:10N 51°07' E 001°19'0 0.0
2017-Sep-25 07:59N 51°07' E 001°19'0 0.0
2017-Sep-25 06:58N 51°07' E 001°19'0 0.0
2017-Sep-25 06:17N 51°07' E 001°19'0 0.0
2017-Sep-25 05:59N 51°07' E 001°19'0 0.0
2017-Sep-25 05:23N 51°07' E 001°19'0 0.0
2017-Sep-25 04:53N 51°07' E 001°19'0 1.0
2017-Sep-25 04:30N 51°07' E 001°20'5 9.9
2017-Sep-25 04:00N 51°08' E 001°27'510.1
2017-Sep-25 03:30N 51°10' E 001°35'612.6
2017-Sep-25 03:00N 51°13' E 001°43'612.5
2017-Sep-25 02:30N 51°19' E 001°48'612.5
2017-Sep-25 02:00N 51°24' E 001°52'713.1
2017-Sep-25 01:30N 51°29' E 001°59'713.8
2017-Sep-25 01:00N 51°34' E 002°06'815.9
2017-Sep-25 00:30N 51°40' E 002°15'816.8
2017-Sep-25 00:00N 51°46' E 002°24'4916.3
2017-Sep-24 21:01N 52°20' E 003°22'014.0
2017-Sep-24 21:00N 52°20' E 003°22'815.0
2017-Sep-24 20:29N 52°26' E 003°30'1914.3
2017-Sep-24 19:08N 52°31' E 004°01'314.6
2017-Sep-24 18:58N 52°31' E 004°05'714.5
2017-Sep-24 18:30N 52°31' E 004°16'714.5
2017-Sep-24 18:00N 52°29' E 004°27'510.3
2017-Sep-24 17:31N 52°28' E 004°35'1 1.4
2017-Sep-24 17:00N 52°28' E 004°37'2 4.6
2017-Sep-24 16:30N 52°28' E 004°40'4 8.2
2017-Sep-24 16:01N 52°26' E 004°46'4 8.1
2017-Sep-24 15:31N 52°24' E 004°53'2 4.1
2017-Sep-24 14:57N 52°23' E 004°55'0 0.0
2017-Sep-24 14:27N 52°23' E 004°55'0 0.0
2017-Sep-24 13:57N 52°23' E 004°55'0 0.0
2017-Sep-24 13:27N 52°23' E 004°55'0 0.0
2017-Sep-24 12:57N 52°23' E 004°55'0 0.0
2017-Sep-24 12:27N 52°23' E 004°55'0 0.0
2017-Sep-24 11:57N 52°23' E 004°55'0 0.0
2017-Sep-24 11:27N 52°23' E 004°55'0 0.0
2017-Sep-24 10:57N 52°23' E 004°55'0 0.0
2017-Sep-24 10:27N 52°23' E 004°55'0 0.0
2017-Sep-24 09:57N 52°23' E 004°55'0 0.0
2017-Sep-24 09:27N 52°23' E 004°55'0 0.0
2017-Sep-24 08:57N 52°23' E 004°55'0 0.0
2017-Sep-24 08:27N 52°23' E 004°55'0 0.4
2017-Sep-24 08:01N 52°23' E 004°55'2 3.8
2017-Sep-24 07:31N 52°24' E 004°53'4 7.9
2017-Sep-24 07:00N 52°26' E 004°47'4 7.9
2017-Sep-24 06:30N 52°27' E 004°41'3 5.4
2017-Sep-24 06:01N 52°28' E 004°37'0 0.5
2017-Sep-24 05:31N 52°28' E 004°36'2 4.8
2017-Sep-24 05:00N 52°28' E 004°32'3 6.3
2017-Sep-24 04:30N 52°29' E 004°27'510.2
2017-Sep-24 04:00N 52°29' E 004°19'612.1
2017-Sep-24 03:30N 52°30' E 004°09'612.2
2017-Sep-24 03:00N 52°35' E 004°05'713.5
2017-Sep-24 02:30N 52°42' E 004°01'713.6
2017-Sep-24 01:59N 52°49' E 003°58'712.8
2017-Sep-24 01:27N 52°55' E 003°60'612.4
2017-Sep-24 01:00N 52°60' E 004°05'1013.0
2017-Sep-24 00:14N 53°06' E 004°18'314.5
2017-Sep-24 00:00N 53°08' E 004°22'915.0
2017-Sep-23 23:26N 53°16' E 004°27'814.6
2017-Sep-23 22:53N 53°24' E 004°32'814.1
2017-Sep-23 22:20N 53°30' E 004°40'617.2
2017-Sep-23 22:00N 53°32' E 004°49'816.9
2017-Sep-23 21:30N 53°35' E 005°02'816.1
2017-Sep-23 21:00N 53°38' E 005°15'816.1
2017-Sep-23 20:30N 53°40' E 005°28'34610.3
2017-Sep-22 11:00N 55°30' E 014°54'13413.4 340 / 181019.3 5.4 14.012.213.0
2017-Sep-22 01:00N 57°12' E 017°30'13315.4 030 / 161020.410.8 14.512.714.0
2017-Sep-21 16:24N 59°16' E 018°59'411.0
2017-Sep-21 15:59N 59°18' E 018°51'1012.2
2017-Sep-21 15:11N 59°23' E 018°34'312.6
2017-Sep-21 14:59N 59°25' E 018°31'3 6.1
2017-Sep-21 14:30N 59°25' E 018°25'4 5.2
2017-Sep-21 13:49N 59°22' E 018°21'412.0
2017-Sep-21 13:30N 59°21' E 018°14'3 6.0
2017-Sep-21 13:00N 59°21' E 018°08'0 0.0
2017-Sep-21 12:28N 59°21' E 018°08'0 0.0
2017-Sep-21 11:58N 59°21' E 018°08'0 0.0
2017-Sep-21 11:25N 59°21' E 018°08'0 0.0
2017-Sep-21 10:58N 59°21' E 018°08'0 0.0
2017-Sep-21 10:28N 59°21' E 018°08'0 0.0
2017-Sep-21 09:55N 59°21' E 018°08'0 0.0
2017-Sep-21 09:28N 59°21' E 018°08'0 0.0
2017-Sep-21 08:55N 59°21' E 018°08'0 0.0
2017-Sep-21 08:28N 59°21' E 018°08'0 0.0
2017-Sep-21 07:49N 59°21' E 018°08'0 0.0
2017-Sep-21 07:28N 59°21' E 018°08'0 0.0
2017-Sep-21 06:49N 59°21' E 018°08'0 0.0
2017-Sep-21 06:28N 59°21' E 018°08'0 0.0
2017-Sep-21 05:58N 59°21' E 018°08'0 0.0
2017-Sep-21 05:28N 59°21' E 018°08'0 0.0
2017-Sep-21 04:55N 59°21' E 018°08'0 0.0
2017-Sep-21 04:25N 59°21' E 018°08'0 0.0
2017-Sep-21 03:58N 59°21' E 018°08'0 0.0
2017-Sep-21 03:28N 59°21' E 018°08'0 0.0
2017-Sep-21 02:55N 59°21' E 018°08'0 0.0
2017-Sep-21 02:25N 59°21' E 018°08'0 0.0
2017-Sep-21 01:55N 59°21' E 018°08'0 0.0
2017-Sep-21 01:28N 59°21' E 018°08'0 0.0
2017-Sep-21 00:58N 59°21' E 018°08'0 0.0
2017-Sep-21 00:25N 59°21' E 018°08'0 0.0
2017-Sep-20 23:58N 59°21' E 018°08'0 0.0
2017-Sep-20 23:28N 59°21' E 018°08'0 0.0
2017-Sep-20 22:58N 59°21' E 018°08'0 0.0
2017-Sep-20 22:28N 59°21' E 018°08'0 0.0
2017-Sep-20 21:58N 59°21' E 018°08'0 0.0
2017-Sep-20 21:25N 59°21' E 018°08'0 0.0
2017-Sep-20 20:58N 59°21' E 018°08'0 0.0
2017-Sep-20 20:28N 59°21' E 018°08'0 0.0
2017-Sep-20 19:58N 59°21' E 018°08'0 0.0
2017-Sep-20 19:28N 59°21' E 018°08'0 0.0
2017-Sep-20 18:58N 59°21' E 018°08'0 0.0
2017-Sep-20 18:25N 59°21' E 018°08'0 0.0
2017-Sep-20 17:55N 59°21' E 018°08'0 0.0
2017-Sep-20 17:19N 59°21' E 018°08'0 0.0
2017-Sep-20 16:49N 59°21' E 018°08'0 0.0
2017-Sep-20 16:28N 59°21' E 018°08'0 0.0
2017-Sep-20 15:55N 59°21' E 018°08'0 0.0
2017-Sep-20 15:19N 59°21' E 018°08'0 0.0
2017-Sep-20 14:55N 59°21' E 018°08'0 0.0
2017-Sep-20 13:58N 59°21' E 018°08'0 0.0
2017-Sep-20 13:25N 59°21' E 018°08'0 0.0
2017-Sep-20 12:55N 59°21' E 018°08'0 0.0
2017-Sep-20 12:28N 59°21' E 018°08'0 0.0
2017-Sep-20 11:58N 59°21' E 018°08'0 0.0
2017-Sep-20 11:25N 59°21' E 018°08'0 0.0
2017-Sep-20 10:55N 59°21' E 018°08'0 0.0
2017-Sep-20 10:28N 59°21' E 018°08'0 0.0
2017-Sep-20 09:58N 59°21' E 018°08'0 0.0
2017-Sep-20 09:28N 59°21' E 018°08'0 0.0
2017-Sep-20 08:58N 59°21' E 018°08'0 0.0
2017-Sep-20 08:28N 59°21' E 018°08'0 0.0
2017-Sep-20 07:55N 59°21' E 018°08'0 0.2
2017-Sep-20 07:30N 59°21' E 018°08'2 4.8
2017-Sep-20 07:01N 59°20' E 018°13'610.8
2017-Sep-20 06:29N 59°22' E 018°23'2 4.9
2017-Sep-20 06:00N 59°24' E 018°26'3 5.1
2017-Sep-20 05:30N 59°26' E 018°30'611.2
2017-Sep-20 04:56N 59°23' E 018°40'613.7
2017-Sep-20 04:30N 59°19' E 018°49'510.6
2017-Sep-20 04:00N 59°16' E 018°58'711.8
2017-Sep-20 03:23N 59°13' E 019°11'812.9
2017-Sep-20 02:47N 59°13' E 019°25'4215.2
2017-Sep-20 00:00N 59°18' E 020°48'1511.3 340 / 181013.210.8 10.0 7.914.0
2017-Sep-19 22:38N 59°22' E 021°17'215.7
2017-Sep-19 22:30N 59°23' E 021°21'815.5
2017-Sep-19 22:01N 59°24' E 021°36'815.1
2017-Sep-19 21:30N 59°25' E 021°50'4215.1
2017-Sep-19 18:42N 59°36' E 023°11'515.6
2017-Sep-19 18:23N 59°37' E 023°20'615.3
2017-Sep-19 18:00N 59°38' E 023°31'815.3
2017-Sep-19 17:30N 59°41' E 023°46'815.4
2017-Sep-19 17:00N 59°44' E 024°00'815.6
2017-Sep-19 16:30N 59°46' E 024°15'815.5
2017-Sep-19 16:00N 59°47' E 024°30'52 3.3
2017-Sep-19 00:19N 59°59' E 026°12'515.1
2017-Sep-19 00:01N 59°60' E 026°21'533167.3
2017-Sep-19 00:00N 59°54' E 028°06'4694.6 360 / 32999.210.8 12.0 7.914.0
2017-Sep-18 23:30N 60°01' E 026°36'714.8
2017-Sep-18 23:01N 59°60' E 026°50'714.1
2017-Sep-18 22:30N 59°59' E 027°04'714.5
2017-Sep-18 22:00N 60°03' E 027°17'714.6
2017-Sep-18 21:31N 60°07' E 027°29'714.7
2017-Sep-18 21:00N 60°11' E 027°42'713.8
2017-Sep-18 20:30N 60°11' E 027°56'714.5
2017-Sep-18 20:01N 60°09' E 028°10'714.8
2017-Sep-18 19:30N 60°05' E 028°23'714.5
2017-Sep-18 19:00N 60°03' E 028°37'714.8
2017-Sep-18 18:30N 60°03' E 028°52'2713.6
2017-Sep-18 16:29N 59°59' E 029°46'511.0
2017-Sep-18 16:00N 59°56' E 029°55'510.5
2017-Sep-18 15:30N 59°56' E 030°05'3 5.7
2017-Sep-18 15:00N 59°57' E 030°11'0 0.1
2017-Sep-18 14:27N 59°57' E 030°11'0 0.0
2017-Sep-18 14:00N 59°57' E 030°11'0 0.0
2017-Sep-18 13:30N 59°57' E 030°11'0 0.0
2017-Sep-18 13:00N 59°57' E 030°11'0 0.0
2017-Sep-18 12:30N 59°57' E 030°11'0 0.0
2017-Sep-18 12:00N 59°57' E 030°11'0 0.0
2017-Sep-18 11:30N 59°57' E 030°11'0 0.0
2017-Sep-18 11:00N 59°57' E 030°11'0 0.0
2017-Sep-18 10:29N 59°57' E 030°11'0 0.0
2017-Sep-18 09:59N 59°57' E 030°11'0 0.0
2017-Sep-18 09:29N 59°57' E 030°11'0 0.0
2017-Sep-18 08:59N 59°57' E 030°11'0 0.0
2017-Sep-18 08:29N 59°57' E 030°11'0 0.0
2017-Sep-18 07:59N 59°57' E 030°11'0 0.0
2017-Sep-18 07:29N 59°57' E 030°11'0 0.0
2017-Sep-18 06:59N 59°57' E 030°11'0 0.0
2017-Sep-18 06:29N 59°57' E 030°11'0 0.0
2017-Sep-18 05:59N 59°57' E 030°11'0 0.0
2017-Sep-18 05:29N 59°57' E 030°11'0 0.0
2017-Sep-18 04:59N 59°57' E 030°11'0 0.0
2017-Sep-18 04:29N 59°57' E 030°11'0 0.0
2017-Sep-18 03:59N 59°57' E 030°11'0 0.0
2017-Sep-18 03:29N 59°57' E 030°11'0 0.0
2017-Sep-18 02:59N 59°57' E 030°11'0 0.0
2017-Sep-18 02:29N 59°57' E 030°11'0 0.0
2017-Sep-18 01:59N 59°57' E 030°11'0 0.0
2017-Sep-18 01:29N 59°57' E 030°11'0 0.0
2017-Sep-18 00:56N 59°57' E 030°11'0 0.0
2017-Sep-18 00:29N 59°57' E 030°11'0 0.0
2017-Sep-17 23:59N 59°57' E 030°11'0 0.0
2017-Sep-17 23:26N 59°57' E 030°11'0 0.0
2017-Sep-17 22:59N 59°57' E 030°11'0 0.0
2017-Sep-17 22:29N 59°57' E 030°11'0 0.0
2017-Sep-17 21:59N 59°57' E 030°11'0 0.0
2017-Sep-17 21:29N 59°57' E 030°11'0 0.0
2017-Sep-17 20:59N 59°57' E 030°11'0 0.0
2017-Sep-17 20:29N 59°57' E 030°11'0 0.0
2017-Sep-17 19:59N 59°57' E 030°11'0 0.0
2017-Sep-17 19:29N 59°57' E 030°11'0 0.0
2017-Sep-17 18:59N 59°57' E 030°11'0 0.0
2017-Sep-17 18:29N 59°57' E 030°11'0 0.0
2017-Sep-17 17:59N 59°57' E 030°11'0 0.0
2017-Sep-17 17:26N 59°57' E 030°11'0 0.0
2017-Sep-17 16:59N 59°57' E 030°11'0 0.0
2017-Sep-17 16:29N 59°57' E 030°11'0 0.0
2017-Sep-17 15:56N 59°57' E 030°11'0 0.0
2017-Sep-17 15:29N 59°57' E 030°11'0 0.0
2017-Sep-17 14:59N 59°57' E 030°11'0 0.0
2017-Sep-17 14:29N 59°57' E 030°11'0 0.0
2017-Sep-17 13:59N 59°57' E 030°11'0 0.0
2017-Sep-17 13:29N 59°57' E 030°11'0 0.0
2017-Sep-17 12:59N 59°57' E 030°11'0 0.0
2017-Sep-17 12:29N 59°57' E 030°11'0 0.0
2017-Sep-17 11:59N 59°57' E 030°11'0 0.0
2017-Sep-17 11:29N 59°57' E 030°11'0 0.0
2017-Sep-17 10:56N 59°57' E 030°11'0 0.0
2017-Sep-17 10:26N 59°57' E 030°11'0 0.0
2017-Sep-17 09:59N 59°57' E 030°11'0 0.0
2017-Sep-17 09:26N 59°57' E 030°11'0 0.0
2017-Sep-17 08:59N 59°57' E 030°11'0 0.0
2017-Sep-17 08:29N 59°57' E 030°11'0 0.0
2017-Sep-17 07:59N 59°57' E 030°11'0 0.0
2017-Sep-17 07:29N 59°57' E 030°11'0 0.0
2017-Sep-17 06:59N 59°57' E 030°11'0 0.0
2017-Sep-17 06:29N 59°57' E 030°11'0 0.0
2017-Sep-17 05:56N 59°57' E 030°11'0 0.0
2017-Sep-17 05:29N 59°57' E 030°11'0 0.0
2017-Sep-17 04:59N 59°57' E 030°11'0 0.0
2017-Sep-17 04:29N 59°57' E 030°11'0 0.0
2017-Sep-17 03:59N 59°57' E 030°11'0 0.0
2017-Sep-17 03:30N 59°57' E 030°11'1 1.5
2017-Sep-17 03:00N 59°57' E 030°10'4 8.3
2017-Sep-17 02:30N 59°56' E 030°02'5 9.9
2017-Sep-17 02:00N 59°57' E 029°52'710.7
2017-Sep-17 01:23N 59°60' E 029°40'2712.1
2017-Sep-16 23:09N 60°02' E 028°47'214.0
2017-Sep-16 23:00N 60°02' E 028°42'714.0
2017-Sep-16 22:31N 60°02' E 028°29'612.9
2017-Sep-16 22:00N 60°06' E 028°18'612.8
2017-Sep-16 21:30N 60°09' E 028°06'713.1
2017-Sep-16 21:00N 60°10' E 027°53'612.3
2017-Sep-16 20:30N 60°09' E 027°41'713.7
2017-Sep-16 20:01N 60°05' E 027°29'713.9
2017-Sep-16 19:30N 60°02' E 027°17'612.8
2017-Sep-16 19:01N 59°58' E 027°06'714.0
2017-Sep-16 18:31N 59°58' E 026°52'815.3
2017-Sep-16 18:00N 59°59' E 026°37'917.2
2017-Sep-16 17:30N 59°57' E 026°21'4217.1
2017-Sep-16 15:04N 59°46' E 025°00'116.9
2017-Sep-16 15:00N 59°46' E 024°58'816.8
2017-Sep-16 14:31N 59°40' E 024°46'  

Dump ship's entire track history